createdAt,value
2018-06-21T00:01:40.601Z,64.48
2018-06-21T00:04:10.637Z,64.36
2018-06-21T00:06:40.384Z,65.06
2018-06-21T00:09:10.640Z,65.10
2018-06-21T00:11:40.637Z,64.94
2018-06-21T00:14:10.386Z,64.87
2018-06-21T00:16:40.528Z,65.06
2018-06-21T00:19:10.233Z,64.63
2018-06-21T00:21:39.778Z,63.31
2018-06-21T00:24:09.357Z,63.45
2018-06-21T00:26:39.307Z,64.07
2018-06-21T00:29:09.175Z,64.30
2018-06-21T00:31:38.843Z,63.40
2018-06-21T00:34:08.786Z,64.02
2018-06-21T00:36:38.722Z,63.61
2018-06-21T00:39:09.483Z,64.00
2018-06-21T00:41:39.351Z,63.98
2018-06-21T00:44:09.213Z,64.73
2018-06-21T00:46:39.196Z,64.35
2018-06-21T00:49:08.946Z,64.41
2018-06-21T00:51:38.522Z,64.73
2018-06-21T00:54:08.315Z,65.26
2018-06-21T00:56:38.085Z,65.58
2018-06-21T00:59:07.943Z,65.82
2018-06-21T01:01:37.775Z,65.96
2018-06-21T01:04:07.548Z,66.25
2018-06-21T01:06:37.264Z,66.24
2018-06-21T01:09:08.222Z,66.61
2018-06-21T01:11:38.021Z,66.46
2018-06-21T01:14:07.619Z,66.44
2018-06-21T01:16:37.474Z,66.30
2018-06-21T01:19:07.051Z,66.24
2018-06-21T01:21:36.660Z,66.18
2018-06-21T01:24:06.474Z,65.41
2018-06-21T01:26:36.352Z,65.79
2018-06-21T01:29:06.403Z,66.26
2018-06-21T01:31:36.314Z,66.64
2018-06-21T01:34:06.367Z,66.10
2018-06-21T01:36:36.027Z,66.94
2018-06-21T01:39:07.568Z,66.96
2018-06-21T01:41:37.343Z,66.17
2018-06-21T01:44:07.428Z,65.97
2018-06-21T01:46:37.057Z,65.89
2018-06-21T01:49:06.987Z,66.42
2018-06-21T01:51:36.751Z,67.36
2018-06-21T01:54:06.524Z,67.38
2018-06-21T01:56:36.503Z,67.77
2018-06-21T01:59:06.393Z,68.08
2018-06-21T02:01:36.363Z,68.07
2018-06-21T02:04:06.242Z,68.02
2018-06-21T02:06:36.107Z,68.44
2018-06-21T02:09:08.460Z,68.75
2018-06-21T02:11:38.139Z,68.30
2018-06-21T02:14:07.980Z,68.87
2018-06-21T02:16:37.559Z,68.75
2018-06-21T02:19:07.189Z,67.88
2018-06-21T02:21:36.779Z,68.16
2018-06-21T02:24:06.783Z,68.46
2018-06-21T02:26:36.615Z,68.96
2018-06-21T02:29:06.606Z,68.70
2018-06-21T02:31:36.422Z,69.00
2018-06-21T02:34:06.380Z,68.86
2018-06-21T02:36:36.018Z,70.04
2018-06-21T02:39:07.973Z,70.94
2018-06-21T02:41:37.960Z,71.97
2018-06-21T02:44:07.759Z,72.12
2018-06-21T02:46:37.407Z,72.58
2018-06-21T02:49:07.062Z,72.45
2018-06-21T02:51:36.594Z,72.94
2018-06-21T02:54:06.396Z,73.32
2018-06-21T02:56:36.455Z,73.23
2018-06-21T02:59:06.422Z,73.00
2018-06-21T03:01:36.511Z,73.29
2018-06-21T03:04:06.361Z,72.05
2018-06-21T03:06:36.076Z,71.81
2018-06-21T03:09:07.856Z,71.53
2018-06-21T03:11:37.804Z,71.16
2018-06-21T03:14:07.699Z,71.14
2018-06-21T03:16:37.561Z,71.08
2018-06-21T03:19:07.187Z,71.23
2018-06-21T03:21:36.706Z,70.74
2018-06-21T03:24:06.700Z,70.71
2018-06-21T03:26:36.606Z,70.72
2018-06-21T03:29:06.561Z,71.51
2018-06-21T03:31:36.511Z,71.40
2018-06-21T03:34:06.486Z,70.93
2018-06-21T03:36:36.340Z,70.92
2018-06-21T03:39:07.459Z,70.92
2018-06-21T03:41:37.198Z,70.49
2018-06-21T03:44:07.223Z,70.89
2018-06-21T03:46:36.928Z,70.43
2018-06-21T03:49:06.599Z,69.72
2018-06-21T03:51:36.559Z,69.24
2018-06-21T03:54:06.185Z,68.72
2018-06-21T03:56:35.822Z,68.84
2018-06-21T03:59:05.736Z,69.00
2018-06-21T04:01:35.865Z,67.80
2018-06-21T04:04:05.639Z,67.44
2018-06-21T04:06:35.205Z,67.39
2018-06-21T04:09:06.972Z,67.18
2018-06-21T04:11:36.961Z,66.75
2018-06-21T04:14:06.728Z,66.91
2018-06-21T04:16:37.193Z,66.54
2018-06-21T04:19:07.111Z,67.03
2018-06-21T04:21:36.709Z,66.72
2018-06-21T04:24:06.867Z,66.39
2018-06-21T04:26:36.857Z,66.08
2018-06-21T04:29:06.667Z,65.64
2018-06-21T04:31:36.629Z,65.77
2018-06-21T04:34:06.487Z,65.57
2018-06-21T04:36:36.667Z,64.85
2018-06-21T04:39:08.920Z,64.52
2018-06-21T04:41:38.896Z,65.24
2018-06-21T04:44:08.529Z,65.07
2018-06-21T04:46:38.464Z,64.52
2018-06-21T04:49:08.070Z,65.08
2018-06-21T04:51:37.842Z,64.76
2018-06-21T04:54:07.482Z,64.44
2018-06-21T04:56:37.482Z,64.05
2018-06-21T04:59:07.316Z,63.77
2018-06-21T05:01:37.154Z,62.61
2018-06-21T05:04:07.256Z,62.31
2018-06-21T05:06:37.042Z,61.49
2018-06-21T05:09:10.125Z,60.92
2018-06-21T05:11:40.253Z,60.84
2018-06-21T05:14:10.043Z,60.54
2018-06-21T05:16:39.703Z,59.69
2018-06-21T05:19:09.481Z,58.57
2018-06-21T05:21:39.364Z,58.77
2018-06-21T05:24:09.220Z,58.03
2018-06-21T05:26:39.183Z,57.92
2018-06-21T05:29:09.230Z,57.07
2018-06-21T05:31:39.039Z,56.35
2018-06-21T05:34:08.886Z,56.50
2018-06-21T05:36:38.730Z,55.79
2018-06-21T05:39:10.448Z,54.96
2018-06-21T05:41:40.615Z,54.48
2018-06-21T05:44:10.455Z,54.45
2018-06-21T05:46:40.111Z,54.51
2018-06-21T05:49:09.963Z,53.72
2018-06-21T05:51:40.287Z,52.86
2018-06-21T05:54:10.070Z,52.42
2018-06-21T05:56:39.979Z,51.32
2018-06-21T05:59:09.803Z,51.26
2018-06-21T06:01:39.600Z,50.60
2018-06-21T06:04:09.553Z,50.84
2018-06-21T06:06:39.563Z,51.23
2018-06-21T06:09:11.023Z,51.11
2018-06-21T06:11:40.730Z,51.42
2018-06-21T06:14:10.450Z,50.32
2018-06-21T06:16:39.910Z,49.30
2018-06-21T06:19:09.840Z,49.69
2018-06-21T06:21:39.736Z,49.99
2018-06-21T06:24:09.903Z,48.99
2018-06-21T06:26:39.775Z,48.64
2018-06-21T06:29:09.744Z,48.42
2018-06-21T06:31:39.806Z,47.99
2018-06-21T06:34:09.878Z,46.81
2018-06-21T06:36:39.488Z,47.79
2018-06-21T06:39:15.913Z,47.53
2018-06-21T06:41:46.691Z,47.72
2018-06-21T06:44:16.354Z,47.57
2018-06-21T06:46:45.991Z,47.55
2018-06-21T06:49:15.661Z,45.83
2018-06-21T06:51:45.383Z,47.45
2018-06-21T06:54:15.163Z,46.90
2018-06-21T06:56:45.033Z,45.84
2018-06-21T06:59:14.973Z,43.80
2018-06-21T07:01:44.873Z,44.16
2018-06-21T07:04:14.641Z,44.29
2018-06-21T07:06:44.598Z,43.71
2018-06-21T07:09:14.418Z,43.18
2018-06-21T07:11:43.983Z,43.00
2018-06-21T07:14:13.629Z,42.97
2018-06-21T07:16:43.446Z,41.96
2018-06-21T07:19:13.218Z,42.00
2018-06-21T07:21:43.035Z,41.90
2018-06-21T07:24:13.291Z,41.57
2018-06-21T07:26:43.217Z,41.22
2018-06-21T07:29:12.919Z,40.45
2018-06-21T07:31:42.751Z,39.48
2018-06-21T07:34:12.540Z,38.60
2018-06-21T07:36:42.311Z,37.84
2018-06-21T07:39:12.070Z,38.61
2018-06-21T07:41:42.047Z,38.58
2018-06-21T07:44:11.713Z,38.94
2018-06-21T07:46:41.358Z,38.32
2018-06-21T07:49:10.986Z,37.29
2018-06-21T07:51:40.683Z,36.25
2018-06-21T07:54:10.636Z,35.15
2018-06-21T07:56:40.320Z,34.35
2018-06-21T07:59:10.212Z,34.53
2018-06-21T08:01:39.986Z,34.51
2018-06-21T08:04:09.756Z,34.01
2018-06-21T08:06:39.660Z,35.24
2018-06-21T08:09:11.233Z,34.57
2018-06-21T08:11:40.868Z,33.84
2018-06-21T08:14:10.467Z,32.40
2018-06-21T08:16:43.390Z,32.72
2018-06-21T08:19:13.386Z,32.97
2018-06-21T08:21:43.299Z,33.23
2018-06-21T08:24:12.946Z,32.85
2018-06-21T08:26:42.847Z,32.02
2018-06-21T08:29:12.483Z,31.73
2018-06-21T08:31:42.963Z,31.75
2018-06-21T08:34:13.082Z,30.86
2018-06-21T08:36:43.052Z,31.13
2018-06-21T08:39:12.656Z,31.41
2018-06-21T08:41:42.228Z,32.12
2018-06-21T08:44:11.791Z,30.40
2018-06-21T08:46:41.700Z,30.04
2018-06-21T08:49:11.258Z,30.03
2018-06-21T08:51:41.155Z,30.35
2018-06-21T08:54:10.935Z,28.69
2018-06-21T08:56:40.654Z,29.00
2018-06-21T08:59:10.384Z,27.61
2018-06-21T09:01:40.465Z,26.33
2018-06-21T09:04:10.550Z,25.95
2018-06-21T09:06:40.656Z,25.08
2018-06-21T09:09:10.689Z,25.76
2018-06-21T09:11:40.419Z,26.03
2018-06-21T09:14:10.192Z,27.06
2018-06-21T09:16:39.947Z,27.17
2018-06-21T09:19:09.973Z,25.16
2018-06-21T09:21:39.709Z,25.82
2018-06-21T09:24:09.346Z,25.35
2018-06-21T09:26:39.177Z,25.37
2018-06-21T09:29:08.783Z,24.73
2018-06-21T09:31:38.463Z,24.90
2018-06-21T09:34:08.246Z,25.55
2018-06-21T09:36:39.428Z,26.34
2018-06-21T09:39:15.789Z,25.19
2018-06-21T09:41:50.923Z,25.61
2018-06-21T09:44:25.569Z,24.90
2018-06-21T09:47:08.167Z,24.14
2018-06-21T09:49:37.760Z,25.15
2018-06-21T09:52:07.462Z,25.55
2018-06-21T09:54:37.287Z,25.66
2018-06-21T09:57:06.735Z,25.15
2018-06-21T09:59:36.739Z,24.76
2018-06-21T10:02:06.509Z,25.01
2018-06-21T10:04:36.565Z,23.82
2018-06-21T10:07:06.218Z,24.25
2018-06-21T10:09:35.836Z,23.15
2018-06-21T10:12:05.566Z,24.56
2018-06-21T10:14:35.346Z,23.98
2018-06-21T10:17:07.979Z,23.82
2018-06-21T10:19:39.203Z,23.34
2018-06-21T10:22:09.057Z,22.24
2018-06-21T10:24:39.015Z,24.67
2018-06-21T10:27:08.723Z,24.98
2018-06-21T10:29:38.654Z,23.36
2018-06-21T10:32:08.489Z,23.22
2018-06-21T10:34:38.275Z,24.62
2018-06-21T10:37:08.038Z,25.21
2018-06-21T10:39:37.775Z,24.68
2018-06-21T10:42:07.399Z,24.68
2018-06-21T10:44:37.050Z,27.46
2018-06-21T10:47:06.835Z,28.56
2018-06-21T10:49:36.648Z,29.00
2018-06-21T10:52:06.667Z,28.03
2018-06-21T10:54:36.575Z,27.90
2018-06-21T10:57:06.267Z,28.42
2018-06-21T10:59:35.924Z,28.59
2018-06-21T11:02:05.563Z,29.97
2018-06-21T11:04:35.505Z,29.61
2018-06-21T11:07:05.340Z,29.16
2018-06-21T11:09:34.956Z,28.31
2018-06-21T11:12:04.746Z,28.32
2018-06-21T11:14:34.570Z,31.70
2018-06-21T11:17:04.596Z,31.70
2018-06-21T11:19:34.323Z,33.32
2018-06-21T11:22:04.175Z,40.62
2018-06-21T11:24:33.926Z,42.64
2018-06-21T11:27:03.777Z,44.65
2018-06-21T11:29:33.715Z,44.94
2018-06-21T11:32:03.723Z,48.44
2018-06-21T11:34:33.897Z,50.13
2018-06-21T11:37:03.563Z,50.57
2018-06-21T11:39:33.844Z,50.42
2018-06-21T11:42:03.786Z,52.03
2018-06-21T11:44:33.771Z,52.89
2018-06-21T11:47:03.623Z,52.49
2018-06-21T11:49:33.242Z,52.60
2018-06-21T11:52:02.951Z,51.78
2018-06-21T11:54:32.816Z,52.28
2018-06-21T11:57:02.662Z,51.11
2018-06-21T11:59:32.611Z,52.19
2018-06-21T12:02:02.455Z,52.82
2018-06-21T12:04:32.568Z,54.50
2018-06-21T12:07:02.096Z,53.43
2018-06-21T12:09:31.736Z,51.52
2018-06-21T12:12:01.451Z,51.23
2018-06-21T12:14:31.235Z,50.83
2018-06-21T12:17:00.884Z,50.39
2018-06-21T12:19:30.828Z,49.39
2018-06-21T12:22:00.503Z,49.63
2018-06-21T12:24:30.618Z,49.80
2018-06-21T12:27:00.698Z,49.76
2018-06-21T12:29:30.512Z,49.61
2018-06-21T12:32:00.707Z,49.66
2018-06-21T12:34:31.485Z,48.48
2018-06-21T12:37:01.126Z,47.01
2018-06-21T12:39:30.707Z,43.91
2018-06-21T12:42:00.811Z,40.96
2018-06-21T12:44:30.927Z,37.13
2018-06-21T12:47:01.064Z,35.98
2018-06-21T12:49:31.042Z,36.22
2018-06-21T12:52:01.415Z,37.15
2018-06-21T12:54:31.204Z,34.10
2018-06-21T12:57:01.026Z,34.65
2018-06-21T12:59:30.779Z,33.30
2018-06-21T13:02:00.591Z,32.77
2018-06-21T13:04:30.116Z,32.97
2018-06-21T13:07:00.064Z,31.46
2018-06-21T13:09:40.517Z,31.12
2018-06-21T13:12:25.123Z,30.23
2018-06-21T13:14:55.533Z,30.33
2018-06-21T13:17:26.007Z,30.74
2018-06-21T13:19:56.071Z,29.16
2018-06-21T13:22:25.883Z,29.96
2018-06-21T13:24:56.223Z,28.31
2018-06-21T13:27:26.109Z,28.13
2018-06-21T13:29:55.731Z,28.65
2018-06-21T13:32:25.527Z,29.25
2018-06-21T13:34:55.170Z,29.25
2018-06-21T13:37:24.803Z,29.55
2018-06-21T13:39:54.498Z,28.34
2018-06-21T13:42:24.279Z,27.84
2018-06-21T13:44:54.139Z,27.67
2018-06-21T13:47:24.216Z,27.48
2018-06-21T13:49:54.028Z,27.94
2018-06-21T13:52:24.257Z,27.62
2018-06-21T13:54:54.032Z,28.19
2018-06-21T13:57:23.819Z,26.92
2018-06-21T13:59:53.531Z,27.52
2018-06-21T14:02:23.560Z,27.55
2018-06-21T14:04:53.516Z,26.90
2018-06-21T14:07:23.148Z,25.93
2018-06-21T14:09:53.054Z,24.44
2018-06-21T14:12:22.917Z,24.08
2018-06-21T14:14:52.717Z,23.50
2018-06-21T14:17:22.326Z,22.87
2018-06-21T14:19:52.186Z,23.58
2018-06-21T14:22:22.164Z,23.61
2018-06-21T14:24:52.376Z,22.41
2018-06-21T14:27:22.376Z,22.80
2018-06-21T14:29:52.067Z,22.74
2018-06-21T14:32:22.103Z,22.06
2018-06-21T14:34:51.781Z,22.32
2018-06-21T14:37:21.521Z,22.18
2018-06-21T14:39:51.910Z,22.96
2018-06-21T14:42:21.610Z,23.01
2018-06-21T14:44:51.386Z,22.35
2018-06-21T14:47:21.476Z,23.15
2018-06-21T14:49:51.448Z,24.04
2018-06-21T14:52:21.526Z,24.10
2018-06-21T14:54:51.437Z,25.02
2018-06-21T14:57:21.059Z,24.33
2018-06-21T14:59:50.695Z,24.63
2018-06-21T15:02:20.406Z,25.28
2018-06-21T15:04:50.019Z,25.67
2018-06-21T15:07:19.624Z,25.23
2018-06-21T15:09:49.374Z,25.91
2018-06-21T15:12:19.405Z,25.30
2018-06-21T15:14:49.576Z,24.83
2018-06-21T15:17:19.314Z,24.87
2018-06-21T15:19:49.427Z,25.57
2018-06-21T15:22:19.677Z,25.29
2018-06-21T15:24:49.813Z,25.71
2018-06-21T15:27:19.641Z,25.44
2018-06-21T15:29:50.159Z,26.35
2018-06-21T15:32:19.957Z,25.74
2018-06-21T15:34:50.505Z,25.50
2018-06-21T15:37:20.457Z,25.89
2018-06-21T15:39:50.451Z,26.15
2018-06-21T15:42:20.661Z,26.41
2018-06-21T15:44:50.566Z,26.42
2018-06-21T15:47:20.257Z,26.49
2018-06-21T15:49:50.256Z,27.20
2018-06-21T15:52:19.997Z,26.87
2018-06-21T15:54:49.625Z,27.03
2018-06-21T15:57:19.811Z,27.15
2018-06-21T15:59:50.251Z,27.67
2018-06-21T16:02:19.922Z,27.05
2018-06-21T16:04:49.580Z,26.26
2018-06-21T16:07:19.539Z,26.96
2018-06-21T16:09:49.434Z,27.56
2018-06-21T16:12:19.372Z,26.97
2018-06-21T16:14:49.083Z,26.78
2018-06-21T16:17:18.847Z,31.28
2018-06-21T16:19:48.496Z,33.08
2018-06-21T16:22:18.458Z,35.46
2018-06-21T16:24:48.404Z,35.13
2018-06-21T16:27:18.422Z,37.32
2018-06-21T16:29:48.206Z,37.89
2018-06-21T16:32:17.906Z,38.67
2018-06-21T16:34:47.494Z,39.24
2018-06-21T16:37:17.142Z,40.38
2018-06-21T16:39:47.160Z,40.65
2018-06-21T16:42:16.878Z,40.76
2018-06-21T16:44:46.798Z,41.37
2018-06-21T16:47:17.030Z,42.93
2018-06-21T16:49:47.030Z,42.29
2018-06-21T16:52:16.894Z,44.76
2018-06-21T16:54:46.660Z,45.62
2018-06-21T16:57:16.640Z,47.38
2018-06-21T16:59:46.191Z,46.35
2018-06-21T17:02:15.745Z,46.74
2018-06-21T17:04:45.274Z,48.63
2018-06-21T17:07:15.473Z,48.20
2018-06-21T17:09:45.138Z,48.23
2018-06-21T17:12:14.974Z,48.63
2018-06-21T17:14:44.763Z,51.04
2018-06-21T17:17:14.414Z,52.39
2018-06-21T17:19:43.992Z,52.85
2018-06-21T17:22:13.826Z,53.46
2018-06-21T17:24:43.602Z,53.82
2018-06-21T17:27:13.778Z,55.39
2018-06-21T17:29:43.451Z,56.00
2018-06-21T17:32:13.037Z,56.74
2018-06-21T17:34:42.685Z,56.42
2018-06-21T17:37:12.606Z,56.54
2018-06-21T17:39:42.388Z,55.99
2018-06-21T17:42:12.076Z,56.15
2018-06-21T17:44:42.028Z,56.44
2018-06-21T17:47:11.762Z,56.61
2018-06-21T17:49:41.547Z,56.50
2018-06-21T17:52:11.595Z,57.28
2018-06-21T17:54:41.475Z,58.15
2018-06-21T17:57:11.277Z,58.18
2018-06-21T17:59:40.895Z,58.29
2018-06-21T18:02:10.575Z,58.59
2018-06-21T18:04:40.572Z,59.93
2018-06-21T18:07:10.660Z,59.66
2018-06-21T18:09:40.649Z,59.75
2018-06-21T18:12:10.472Z,60.08
2018-06-21T18:14:40.344Z,59.23
2018-06-21T18:17:10.339Z,59.00
2018-06-21T18:19:40.092Z,58.50
2018-06-21T18:22:09.843Z,58.61
2018-06-21T18:24:39.687Z,58.51
2018-06-21T18:27:09.474Z,60.07
2018-06-21T18:29:39.164Z,59.63
2018-06-21T18:32:08.806Z,60.02
2018-06-21T18:34:38.738Z,60.37
2018-06-21T18:37:08.532Z,60.25
2018-06-21T18:39:38.502Z,60.52
2018-06-21T18:42:08.562Z,60.61
2018-06-21T18:44:38.392Z,61.34
2018-06-21T18:47:08.191Z,60.95
2018-06-21T18:49:38.382Z,60.98
2018-06-21T18:52:08.132Z,61.19
2018-06-21T18:54:38.089Z,60.87
2018-06-21T18:57:08.107Z,61.49
2018-06-21T18:59:37.894Z,61.59
2018-06-21T19:02:07.494Z,61.82
2018-06-21T19:04:37.478Z,62.56
2018-06-21T19:07:12.731Z,63.34
2018-06-21T19:09:47.784Z,62.87
2018-06-21T19:12:17.403Z,63.20
2018-06-21T19:14:47.094Z,62.37
2018-06-21T19:17:17.001Z,63.33
2018-06-21T19:19:46.906Z,62.42
2018-06-21T19:22:16.830Z,63.05
2018-06-21T19:24:46.581Z,63.55
2018-06-21T19:27:16.693Z,63.19
2018-06-21T19:29:46.299Z,63.57
2018-06-21T19:32:15.899Z,63.47
2018-06-21T19:34:45.762Z,62.41
2018-06-21T19:37:15.410Z,62.37
2018-06-21T19:39:45.172Z,63.16
2018-06-21T19:42:14.851Z,63.47
2018-06-21T19:44:44.672Z,63.66
2018-06-21T19:47:14.433Z,63.53
2018-06-21T19:49:44.490Z,62.06
2018-06-21T19:52:14.207Z,62.18
2018-06-21T19:54:43.812Z,61.29
2018-06-21T19:57:13.416Z,60.47
2018-06-21T19:59:43.011Z,59.81
2018-06-21T20:02:12.688Z,60.18
2018-06-21T20:04:42.658Z,59.79
2018-06-21T20:07:12.357Z,60.44
2018-06-21T20:09:41.920Z,61.04
2018-06-21T20:12:11.571Z,60.61
2018-06-21T20:14:41.476Z,60.89
2018-06-21T20:17:11.452Z,61.25
2018-06-21T20:19:46.566Z,61.36
2018-06-21T20:22:16.298Z,61.78
2018-06-21T20:24:46.246Z,62.34
2018-06-21T20:27:15.702Z,62.23
2018-06-21T20:29:45.272Z,61.86
2018-06-21T20:32:15.066Z,62.59
2018-06-21T20:34:44.883Z,62.71
2018-06-21T20:37:16.063Z,63.17
2018-06-21T20:39:46.179Z,63.17
2018-06-21T20:42:15.863Z,63.74
2018-06-21T20:44:45.859Z,63.83
2018-06-21T20:47:15.874Z,63.82
2018-06-21T20:49:45.836Z,64.05
2018-06-21T20:52:20.506Z,64.65
2018-06-21T20:54:50.302Z,64.91
2018-06-21T20:57:19.888Z,64.81
2018-06-21T20:59:49.423Z,64.96
2018-06-21T21:02:19.426Z,65.15
2018-06-21T21:05:11.201Z,65.58
2018-06-21T21:07:41.067Z,64.97
2018-06-21T21:10:11.966Z,65.67
2018-06-21T21:12:42.128Z,65.65
2018-06-21T21:15:12.755Z,65.43
2018-06-21T21:17:42.858Z,65.89
2018-06-21T21:20:12.481Z,66.48
2018-06-21T21:22:42.788Z,65.73
2018-06-21T21:25:12.789Z,65.55
2018-06-21T21:27:42.310Z,64.96
2018-06-21T21:30:11.766Z,65.03
2018-06-21T21:32:41.763Z,65.07
2018-06-21T21:35:11.723Z,65.23
2018-06-21T21:37:41.595Z,65.10
2018-06-21T21:40:11.725Z,64.57
2018-06-21T21:42:41.626Z,65.13
2018-06-21T21:45:11.393Z,65.21
2018-06-21T21:47:41.206Z,65.06
2018-06-21T21:50:11.010Z,64.44
2018-06-21T21:52:40.648Z,64.06
2018-06-21T21:55:10.327Z,64.29
2018-06-21T21:57:39.967Z,64.25
2018-06-21T22:00:52.236Z,64.23
2018-06-21T22:03:22.092Z,63.79
2018-06-21T22:05:51.787Z,62.27
2018-06-21T22:08:21.643Z,62.41
2018-06-21T22:10:51.355Z,62.84
2018-06-21T22:13:21.439Z,63.10
2018-06-21T22:15:51.254Z,62.39
2018-06-21T22:18:20.851Z,61.74
2018-06-21T22:20:50.388Z,61.39
2018-06-21T22:23:20.162Z,61.43
2018-06-21T22:25:49.802Z,61.25
2018-06-21T22:28:19.328Z,61.35
2018-06-21T22:30:49.271Z,61.84
2018-06-21T22:33:19.041Z,62.45
2018-06-21T22:35:48.646Z,63.66
2018-06-21T22:38:18.477Z,62.80
2018-06-21T22:40:48.144Z,62.22
2018-06-21T22:43:17.844Z,61.37
2018-06-21T22:45:47.568Z,61.21
2018-06-21T22:48:17.342Z,61.98
2018-06-21T22:50:47.105Z,60.53
2018-06-21T22:53:17.071Z,59.94
2018-06-21T22:55:46.659Z,60.50
2018-06-21T22:58:16.310Z,60.37
2018-06-21T23:00:46.405Z,60.72
2018-06-21T23:03:16.579Z,60.33
2018-06-21T23:05:46.402Z,59.99
2018-06-21T23:08:16.196Z,59.86
2018-06-21T23:10:45.948Z,59.95
2018-06-21T23:13:15.696Z,60.01
2018-06-21T23:15:45.428Z,59.98
2018-06-21T23:18:24.910Z,60.03
2018-06-21T23:20:54.828Z,60.84
2018-06-21T23:23:24.602Z,61.44
2018-06-21T23:25:54.162Z,61.92
2018-06-21T23:28:23.753Z,62.16
2018-06-21T23:30:53.834Z,61.99
2018-06-21T23:33:23.783Z,62.49
2018-06-21T23:35:53.738Z,62.60
2018-06-21T23:38:23.583Z,62.77
2018-06-21T23:40:53.787Z,62.28
2018-06-21T23:43:23.830Z,61.48
2018-06-21T23:45:53.723Z,61.38
2018-06-21T23:48:23.473Z,62.11
2018-06-21T23:50:53.567Z,62.28
2018-06-21T23:53:23.155Z,62.12
2018-06-21T23:55:52.687Z,61.45
2018-06-21T23:58:22.238Z,61.46
